sensor_id;sensor_type;location;lat;lon;timestamp;P1;durP1;ratioP1;P2;durP2;ratioP2
34317;SDS011;20582;52.196;20.952;2023-05-29T00:00:13;11.98;;;4.03;;
34317;SDS011;20582;52.196;20.952;2023-05-29T00:02:41;13.35;;;4.38;;
34317;SDS011;20582;52.196;20.952;2023-05-29T00:05:09;11.57;;;4.18;;
34317;SDS011;20582;52.196;20.952;2023-05-29T00:07:36;9.30;;;3.90;;
34317;SDS011;20582;52.196;20.952;2023-05-29T00:10:03;11.93;;;4.43;;
34317;SDS011;20582;52.196;20.952;2023-05-29T00:12:29;12.98;;;3.80;;
34317;SDS011;20582;52.196;20.952;2023-05-29T00:14:55;8.70;;;3.75;;
34317;SDS011;20582;52.196;20.952;2023-05-29T00:17:21;11.57;;;3.92;;
34317;SDS011;20582;52.196;20.952;2023-05-29T00:19:47;11.90;;;4.50;;
34317;SDS011;20582;52.196;20.952;2023-05-29T00:22:13;10.30;;;4.10;;
34317;SDS011;20582;52.196;20.952;2023-05-29T00:24:39;13.95;;;4.85;;
34317;SDS011;20582;52.196;20.952;2023-05-29T00:27:05;10.13;;;4.05;;
34317;SDS011;20582;52.196;20.952;2023-05-29T00:29:31;17.63;;;4.32;;
34317;SDS011;20582;52.196;20.952;2023-05-29T00:31:57;11.02;;;4.03;;
34317;SDS011;20582;52.196;20.952;2023-05-29T00:34:23;12.45;;;4.07;;
34317;SDS011;20582;52.196;20.952;2023-05-29T00:36:50;13.40;;;4.32;;
34317;SDS011;20582;52.196;20.952;2023-05-29T00:39:17;10.57;;;3.88;;
34317;SDS011;20582;52.196;20.952;2023-05-29T00:41:43;12.60;;;4.38;;
34317;SDS011;20582;52.196;20.952;2023-05-29T00:44:09;10.38;;;3.75;;
34317;SDS011;20582;52.196;20.952;2023-05-29T00:46:35;11.25;;;3.75;;
34317;SDS011;20582;52.196;20.952;2023-05-29T00:49:01;10.68;;;3.88;;
34317;SDS011;20582;52.196;20.952;2023-05-29T00:51:28;13.18;;;3.90;;
34317;SDS011;20582;52.196;20.952;2023-05-29T00:53:56;10.05;;;4.10;;
34317;SDS011;20582;52.196;20.952;2023-05-29T00:56:23;11.80;;;4.18;;
34317;SDS011;20582;52.196;20.952;2023-05-29T00:58:49;13.13;;;3.88;;
34317;SDS011;20582;52.196;20.952;2023-05-29T01:01:18;9.18;;;3.88;;
34317;SDS011;20582;52.196;20.952;2023-05-29T01:03:44;8.43;;;3.95;;
34317;SDS011;20582;52.196;20.952;2023-05-29T01:06:13;12.45;;;4.35;;
34317;SDS011;20582;52.196;20.952;2023-05-29T01:08:39;12.90;;;3.97;;
34317;SDS011;20582;52.196;20.952;2023-05-29T01:11:12;10.73;;;4.07;;
34317;SDS011;20582;52.196;20.952;2023-05-29T01:13:41;10.25;;;4.35;;
34317;SDS011;20582;52.196;20.952;2023-05-29T01:16:12;10.23;;;4.40;;
34317;SDS011;20582;52.196;20.952;2023-05-29T01:21:26;12.95;;;4.57;;
34317;SDS011;20582;52.196;20.952;2023-05-29T01:24:01;13.25;;;4.05;;
34317;SDS011;20582;52.196;20.952;2023-05-29T01:29:13;12.23;;;4.35;;
34317;SDS011;20582;52.196;20.952;2023-05-29T01:31:40;11.35;;;5.70;;
34317;SDS011;20582;52.196;20.952;2023-05-29T01:34:07;12.98;;;6.40;;
34317;SDS011;20582;52.196;20.952;2023-05-29T01:36:33;12.32;;;5.43;;
34317;SDS011;20582;52.196;20.952;2023-05-29T01:39:00;13.73;;;4.82;;
34317;SDS011;20582;52.196;20.952;2023-05-29T01:41:26;10.82;;;4.85;;
34317;SDS011;20582;52.196;20.952;2023-05-29T01:43:53;10.98;;;4.47;;
34317;SDS011;20582;52.196;20.952;2023-05-29T01:46:19;9.05;;;4.10;;
34317;SDS011;20582;52.196;20.952;2023-05-29T01:48:46;9.68;;;3.92;;
34317;SDS011;20582;52.196;20.952;2023-05-29T01:51:12;12.38;;;4.30;;
34317;SDS011;20582;52.196;20.952;2023-05-29T01:53:39;9.55;;;4.18;;
34317;SDS011;20582;52.196;20.952;2023-05-29T01:56:06;10.88;;;4.63;;
34317;SDS011;20582;52.196;20.952;2023-05-29T01:58:32;10.38;;;4.88;;
34317;SDS011;20582;52.196;20.952;2023-05-29T02:00:58;15.63;;;4.45;;
34317;SDS011;20582;52.196;20.952;2023-05-29T02:03:25;13.50;;;5.00;;
34317;SDS011;20582;52.196;20.952;2023-05-29T02:05:54;15.50;;;5.07;;
34317;SDS011;20582;52.196;20.952;2023-05-29T02:08:20;10.27;;;4.18;;
34317;SDS011;20582;52.196;20.952;2023-05-29T02:10:46;15.02;;;4.75;;
34317;SDS011;20582;52.196;20.952;2023-05-29T02:13:12;12.18;;;4.45;;
34317;SDS011;20582;52.196;20.952;2023-05-29T02:15:38;14.35;;;4.53;;
34317;SDS011;20582;52.196;20.952;2023-05-29T02:18:04;13.10;;;4.47;;
34317;SDS011;20582;52.196;20.952;2023-05-29T02:20:30;10.35;;;4.13;;
34317;SDS011;20582;52.196;20.952;2023-05-29T02:22:56;10.23;;;4.57;;
34317;SDS011;20582;52.196;20.952;2023-05-29T02:25:22;12.85;;;4.47;;
34317;SDS011;20582;52.196;20.952;2023-05-29T02:27:48;8.65;;;4.45;;
34317;SDS011;20582;52.196;20.952;2023-05-29T02:30:14;12.68;;;4.78;;
34317;SDS011;20582;52.196;20.952;2023-05-29T02:32:40;10.07;;;3.90;;
34317;SDS011;20582;52.196;20.952;2023-05-29T02:35:06;13.35;;;4.10;;
34317;SDS011;20582;52.196;20.952;2023-05-29T02:37:32;8.32;;;4.38;;
34317;SDS011;20582;52.196;20.952;2023-05-29T02:39:58;10.73;;;4.25;;
34317;SDS011;20582;52.196;20.952;2023-05-29T02:42:24;14.05;;;4.28;;
34317;SDS011;20582;52.196;20.952;2023-05-29T02:44:50;12.65;;;4.10;;
34317;SDS011;20582;52.196;20.952;2023-05-29T02:47:16;11.88;;;4.18;;
34317;SDS011;20582;52.196;20.952;2023-05-29T02:49:42;14.57;;;4.80;;
34317;SDS011;20582;52.196;20.952;2023-05-29T02:52:08;10.40;;;4.63;;
34317;SDS011;20582;52.196;20.952;2023-05-29T02:54:34;11.15;;;4.05;;
34317;SDS011;20582;52.196;20.952;2023-05-29T02:57:00;11.73;;;4.50;;
34317;SDS011;20582;52.196;20.952;2023-05-29T02:59:27;8.90;;;4.47;;
34317;SDS011;20582;52.196;20.952;2023-05-29T03:01:53;12.50;;;4.30;;
34317;SDS011;20582;52.196;20.952;2023-05-29T03:04:19;9.65;;;4.28;;
34317;SDS011;20582;52.196;20.952;2023-05-29T03:06:45;10.45;;;4.30;;
34317;SDS011;20582;52.196;20.952;2023-05-29T03:09:12;11.18;;;5.28;;
34317;SDS011;20582;52.196;20.952;2023-05-29T03:11:38;11.80;;;5.55;;
34317;SDS011;20582;52.196;20.952;2023-05-29T03:14:05;11.68;;;4.93;;
34317;SDS011;20582;52.196;20.952;2023-05-29T03:16:31;10.57;;;4.80;;
34317;SDS011;20582;52.196;20.952;2023-05-29T03:18:57;13.30;;;4.82;;
34317;SDS011;20582;52.196;20.952;2023-05-29T03:21:23;11.93;;;4.70;;
34317;SDS011;20582;52.196;20.952;2023-05-29T03:23:49;18.38;;;5.43;;
34317;SDS011;20582;52.196;20.952;2023-05-29T03:26:16;14.40;;;5.78;;
34317;SDS011;20582;52.196;20.952;2023-05-29T03:28:42;13.50;;;5.50;;
34317;SDS011;20582;52.196;20.952;2023-05-29T03:31:08;16.58;;;5.70;;
34317;SDS011;20582;52.196;20.952;2023-05-29T03:33:35;15.85;;;5.63;;
34317;SDS011;20582;52.196;20.952;2023-05-29T03:36:01;11.40;;;4.95;;
34317;SDS011;20582;52.196;20.952;2023-05-29T03:38:27;13.93;;;5.55;;
34317;SDS011;20582;52.196;20.952;2023-05-29T03:40:53;14.52;;;6.85;;
34317;SDS011;20582;52.196;20.952;2023-05-29T03:43:19;15.02;;;5.53;;
34317;SDS011;20582;52.196;20.952;2023-05-29T03:45:46;16.20;;;6.03;;
34317;SDS011;20582;52.196;20.952;2023-05-29T03:48:12;17.33;;;6.40;;
34317;SDS011;20582;52.196;20.952;2023-05-29T03:50:39;12.68;;;6.55;;
34317;SDS011;20582;52.196;20.952;2023-05-29T03:53:05;15.15;;;6.22;;
34317;SDS011;20582;52.196;20.952;2023-05-29T03:55:31;13.20;;;6.65;;
34317;SDS011;20582;52.196;20.952;2023-05-29T03:57:57;18.25;;;6.85;;
34317;SDS011;20582;52.196;20.952;2023-05-29T04:00:23;15.65;;;6.32;;
34317;SDS011;20582;52.196;20.952;2023-05-29T04:03:04;17.83;;;6.53;;
34317;SDS011;20582;52.196;20.952;2023-05-29T04:05:30;13.73;;;6.45;;
34317;SDS011;20582;52.196;20.952;2023-05-29T04:07:56;17.42;;;6.13;;
34317;SDS011;20582;52.196;20.952;2023-05-29T04:10:22;16.90;;;6.20;;
34317;SDS011;20582;52.196;20.952;2023-05-29T04:12:49;13.35;;;5.78;;
34317;SDS011;20582;52.196;20.952;2023-05-29T04:15:15;12.10;;;5.30;;
34317;SDS011;20582;52.196;20.952;2023-05-29T04:17:41;12.02;;;4.50;;
34317;SDS011;20582;52.196;20.952;2023-05-29T04:20:07;14.93;;;5.18;;
34317;SDS011;20582;52.196;20.952;2023-05-29T04:22:36;13.07;;;5.53;;
34317;SDS011;20582;52.196;20.952;2023-05-29T04:25:03;12.85;;;4.35;;
34317;SDS011;20582;52.196;20.952;2023-05-29T04:27:29;13.82;;;4.53;;
34317;SDS011;20582;52.196;20.952;2023-05-29T04:29:57;12.65;;;4.75;;
34317;SDS011;20582;52.196;20.952;2023-05-29T04:32:23;11.88;;;4.63;;
34317;SDS011;20582;52.196;20.952;2023-05-29T04:34:49;11.13;;;4.10;;
34317;SDS011;20582;52.196;20.952;2023-05-29T04:37:16;13.63;;;4.53;;
34317;SDS011;20582;52.196;20.952;2023-05-29T04:39:42;10.90;;;4.18;;
34317;SDS011;20582;52.196;20.952;2023-05-29T04:42:08;11.30;;;4.07;;
34317;SDS011;20582;52.196;20.952;2023-05-29T04:44:34;11.70;;;4.07;;
34317;SDS011;20582;52.196;20.952;2023-05-29T04:47:00;9.05;;;4.38;;
34317;SDS011;20582;52.196;20.952;2023-05-29T04:49:29;9.55;;;4.00;;
34317;SDS011;20582;52.196;20.952;2023-05-29T04:51:55;13.68;;;3.80;;
34317;SDS011;20582;52.196;20.952;2023-05-29T04:54:25;16.73;;;4.53;;
34317;SDS011;20582;52.196;20.952;2023-05-29T04:56:51;9.80;;;4.10;;
34317;SDS011;20582;52.196;20.952;2023-05-29T04:59:17;13.15;;;4.38;;
34317;SDS011;20582;52.196;20.952;2023-05-29T05:01:43;13.00;;;4.40;;
34317;SDS011;20582;52.196;20.952;2023-05-29T05:04:09;11.15;;;4.00;;
34317;SDS011;20582;52.196;20.952;2023-05-29T05:06:35;14.52;;;4.07;;
34317;SDS011;20582;52.196;20.952;2023-05-29T05:09:02;13.75;;;3.75;;
34317;SDS011;20582;52.196;20.952;2023-05-29T05:11:28;12.00;;;3.70;;
34317;SDS011;20582;52.196;20.952;2023-05-29T05:13:54;14.55;;;3.13;;
34317;SDS011;20582;52.196;20.952;2023-05-29T05:16:20;10.20;;;2.63;;
34317;SDS011;20582;52.196;20.952;2023-05-29T05:18:46;14.63;;;3.10;;
34317;SDS011;20582;52.196;20.952;2023-05-29T05:21:12;9.98;;;3.03;;
34317;SDS011;20582;52.196;20.952;2023-05-29T05:23:38;9.32;;;2.72;;
34317;SDS011;20582;52.196;20.952;2023-05-29T05:26:04;9.50;;;2.70;;
34317;SDS011;20582;52.196;20.952;2023-05-29T05:28:30;8.50;;;3.03;;
34317;SDS011;20582;52.196;20.952;2023-05-29T05:30:56;11.68;;;2.90;;
34317;SDS011;20582;52.196;20.952;2023-05-29T05:33:22;8.70;;;2.70;;
34317;SDS011;20582;52.196;20.952;2023-05-29T05:35:48;20.73;;;3.15;;
34317;SDS011;20582;52.196;20.952;2023-05-29T05:38:14;10.95;;;2.90;;
34317;SDS011;20582;52.196;20.952;2023-05-29T05:40:41;9.55;;;2.88;;
34317;SDS011;20582;52.196;20.952;2023-05-29T05:43:09;7.55;;;2.85;;
34317;SDS011;20582;52.196;20.952;2023-05-29T05:45:35;15.25;;;3.50;;
34317;SDS011;20582;52.196;20.952;2023-05-29T05:48:06;9.00;;;2.67;;
34317;SDS011;20582;52.196;20.952;2023-05-29T05:50:32;14.32;;;2.92;;
34317;SDS011;20582;52.196;20.952;2023-05-29T05:52:58;8.57;;;2.83;;
34317;SDS011;20582;52.196;20.952;2023-05-29T05:55:24;8.20;;;2.47;;
34317;SDS011;20582;52.196;20.952;2023-05-29T05:57:52;15.18;;;3.08;;
34317;SDS011;20582;52.196;20.952;2023-05-29T06:00:18;10.63;;;2.80;;
34317;SDS011;20582;52.196;20.952;2023-05-29T06:02:45;18.90;;;3.08;;
34317;SDS011;20582;52.196;20.952;2023-05-29T06:05:11;10.68;;;3.10;;
34317;SDS011;20582;52.196;20.952;2023-05-29T06:07:37;18.80;;;3.50;;
34317;SDS011;20582;52.196;20.952;2023-05-29T06:10:03;15.57;;;3.90;;
34317;SDS011;20582;52.196;20.952;2023-05-29T06:12:29;16.08;;;3.20;;
34317;SDS011;20582;52.196;20.952;2023-05-29T06:14:55;20.30;;;3.90;;
34317;SDS011;20582;52.196;20.952;2023-05-29T06:17:22;21.35;;;3.40;;
34317;SDS011;20582;52.196;20.952;2023-05-29T06:19:48;15.65;;;3.55;;
34317;SDS011;20582;52.196;20.952;2023-05-29T06:22:14;12.60;;;3.33;;
34317;SDS011;20582;52.196;20.952;2023-05-29T06:24:41;11.65;;;3.05;;
34317;SDS011;20582;52.196;20.952;2023-05-29T06:27:07;12.20;;;3.03;;
34317;SDS011;20582;52.196;20.952;2023-05-29T06:29:33;13.43;;;3.13;;
34317;SDS011;20582;52.196;20.952;2023-05-29T06:31:59;12.55;;;2.80;;
34317;SDS011;20582;52.196;20.952;2023-05-29T06:34:25;7.45;;;2.60;;
34317;SDS011;20582;52.196;20.952;2023-05-29T06:36:51;10.50;;;2.75;;
34317;SDS011;20582;52.196;20.952;2023-05-29T06:39:17;6.38;;;2.38;;
34317;SDS011;20582;52.196;20.952;2023-05-29T06:41:45;8.43;;;2.28;;
34317;SDS011;20582;52.196;20.952;2023-05-29T06:44:10;9.25;;;2.50;;
34317;SDS011;20582;52.196;20.952;2023-05-29T06:46:37;12.70;;;2.60;;
34317;SDS011;20582;52.196;20.952;2023-05-29T06:49:03;12.60;;;2.55;;
34317;SDS011;20582;52.196;20.952;2023-05-29T06:51:29;8.52;;;2.25;;
34317;SDS011;20582;52.196;20.952;2023-05-29T06:53:55;10.80;;;2.33;;
34317;SDS011;20582;52.196;20.952;2023-05-29T06:56:21;9.18;;;2.70;;
34317;SDS011;20582;52.196;20.952;2023-05-29T06:58:47;10.90;;;2.92;;
34317;SDS011;20582;52.196;20.952;2023-05-29T07:01:13;11.90;;;2.90;;
34317;SDS011;20582;52.196;20.952;2023-05-29T07:03:41;8.50;;;2.75;;
34317;SDS011;20582;52.196;20.952;2023-05-29T07:06:07;8.18;;;2.42;;
34317;SDS011;20582;52.196;20.952;2023-05-29T07:08:34;13.05;;;2.60;;
34317;SDS011;20582;52.196;20.952;2023-05-29T07:11:01;11.00;;;2.95;;
34317;SDS011;20582;52.196;20.952;2023-05-29T07:13:27;10.93;;;3.20;;
34317;SDS011;20582;52.196;20.952;2023-05-29T07:15:53;10.00;;;2.35;;
34317;SDS011;20582;52.196;20.952;2023-05-29T07:18:19;7.78;;;2.92;;
34317;SDS011;20582;52.196;20.952;2023-05-29T07:20:44;10.88;;;2.63;;
34317;SDS011;20582;52.196;20.952;2023-05-29T07:23:10;11.60;;;2.70;;
34317;SDS011;20582;52.196;20.952;2023-05-29T07:25:36;10.50;;;2.95;;
34317;SDS011;20582;52.196;20.952;2023-05-29T07:28:02;10.50;;;2.53;;
34317;SDS011;20582;52.196;20.952;2023-05-29T07:30:28;9.50;;;2.60;;
34317;SDS011;20582;52.196;20.952;2023-05-29T07:32:54;11.13;;;2.90;;
34317;SDS011;20582;52.196;20.952;2023-05-29T07:35:20;12.80;;;2.90;;
34317;SDS011;20582;52.196;20.952;2023-05-29T07:37:46;10.30;;;3.55;;
34317;SDS011;20582;52.196;20.952;2023-05-29T07:40:14;14.43;;;2.78;;
34317;SDS011;20582;52.196;20.952;2023-05-29T07:42:40;8.73;;;2.63;;
34317;SDS011;20582;52.196;20.952;2023-05-29T07:45:06;12.80;;;2.95;;
34317;SDS011;20582;52.196;20.952;2023-05-29T07:47:32;9.80;;;2.90;;
34317;SDS011;20582;52.196;20.952;2023-05-29T07:49:58;12.40;;;2.78;;
34317;SDS011;20582;52.196;20.952;2023-05-29T07:52:24;11.07;;;2.80;;
34317;SDS011;20582;52.196;20.952;2023-05-29T07:54:50;14.40;;;3.58;;
34317;SDS011;20582;52.196;20.952;2023-05-29T07:57:16;12.23;;;3.00;;
34317;SDS011;20582;52.196;20.952;2023-05-29T07:59:42;10.68;;;2.90;;
34317;SDS011;20582;52.196;20.952;2023-05-29T08:02:09;9.93;;;3.97;;
34317;SDS011;20582;52.196;20.952;2023-05-29T08:04:35;9.75;;;3.75;;
34317;SDS011;20582;52.196;20.952;2023-05-29T08:07:02;14.52;;;3.50;;
34317;SDS011;20582;52.196;20.952;2023-05-29T08:09:31;10.63;;;3.65;;
34317;SDS011;20582;52.196;20.952;2023-05-29T08:11:57;12.55;;;3.33;;
34317;SDS011;20582;52.196;20.952;2023-05-29T08:14:25;16.67;;;3.65;;
34317;SDS011;20582;52.196;20.952;2023-05-29T08:16:51;14.65;;;3.45;;
34317;SDS011;20582;52.196;20.952;2023-05-29T08:19:17;12.77;;;3.00;;
34317;SDS011;20582;52.196;20.952;2023-05-29T08:21:43;8.93;;;2.80;;
34317;SDS011;20582;52.196;20.952;2023-05-29T08:24:08;14.85;;;3.08;;
34317;SDS011;20582;52.196;20.952;2023-05-29T08:26:35;14.27;;;3.60;;
34317;SDS011;20582;52.196;20.952;2023-05-29T08:29:01;9.75;;;3.17;;
34317;SDS011;20582;52.196;20.952;2023-05-29T08:31:27;12.82;;;3.40;;
34317;SDS011;20582;52.196;20.952;2023-05-29T08:33:53;10.07;;;3.15;;
34317;SDS011;20582;52.196;20.952;2023-05-29T08:36:19;9.55;;;3.20;;
34317;SDS011;20582;52.196;20.952;2023-05-29T08:38:48;10.77;;;2.90;;
34317;SDS011;20582;52.196;20.952;2023-05-29T08:41:20;11.73;;;3.17;;
34317;SDS011;20582;52.196;20.952;2023-05-29T08:43:47;11.32;;;3.20;;
34317;SDS011;20582;52.196;20.952;2023-05-29T08:46:15;10.02;;;2.80;;
34317;SDS011;20582;52.196;20.952;2023-05-29T08:48:43;10.23;;;3.03;;
34317;SDS011;20582;52.196;20.952;2023-05-29T08:51:13;11.73;;;3.05;;
34317;SDS011;20582;52.196;20.952;2023-05-29T08:53:39;13.48;;;3.28;;
34317;SDS011;20582;52.196;20.952;2023-05-29T08:56:06;10.23;;;2.75;;
34317;SDS011;20582;52.196;20.952;2023-05-29T08:58:32;9.45;;;2.88;;
34317;SDS011;20582;52.196;20.952;2023-05-29T09:00:58;9.65;;;3.00;;
34317;SDS011;20582;52.196;20.952;2023-05-29T09:03:24;10.85;;;2.88;;
34317;SDS011;20582;52.196;20.952;2023-05-29T09:05:50;9.85;;;3.70;;
34317;SDS011;20582;52.196;20.952;2023-05-29T09:08:17;9.10;;;2.92;;
34317;SDS011;20582;52.196;20.952;2023-05-29T09:10:44;9.18;;;2.72;;
34317;SDS011;20582;52.196;20.952;2023-05-29T09:13:12;11.57;;;3.00;;
34317;SDS011;20582;52.196;20.952;2023-05-29T09:15:39;10.18;;;3.00;;
34317;SDS011;20582;52.196;20.952;2023-05-29T09:18:07;11.80;;;2.85;;
34317;SDS011;20582;52.196;20.952;2023-05-29T09:20:33;10.32;;;3.05;;
34317;SDS011;20582;52.196;20.952;2023-05-29T09:23:01;9.75;;;3.08;;
34317;SDS011;20582;52.196;20.952;2023-05-29T09:25:28;10.80;;;2.72;;
34317;SDS011;20582;52.196;20.952;2023-05-29T09:28:02;10.50;;;3.20;;
34317;SDS011;20582;52.196;20.952;2023-05-29T09:30:33;12.50;;;3.25;;
34317;SDS011;20582;52.196;20.952;2023-05-29T09:33:00;8.48;;;3.30;;
34317;SDS011;20582;52.196;20.952;2023-05-29T09:35:47;11.98;;;4.53;;
34317;SDS011;20582;52.196;20.952;2023-05-29T09:38:16;12.88;;;5.05;;
34317;SDS011;20582;52.196;20.952;2023-05-29T09:40:43;11.35;;;3.75;;
34317;SDS011;20582;52.196;20.952;2023-05-29T09:43:13;12.07;;;3.87;;
34317;SDS011;20582;52.196;20.952;2023-05-29T09:45:40;14.57;;;3.80;;
34317;SDS011;20582;52.196;20.952;2023-05-29T09:48:07;7.82;;;3.45;;
34317;SDS011;20582;52.196;20.952;2023-05-29T09:50:33;8.30;;;4.00;;
34317;SDS011;20582;52.196;20.952;2023-05-29T09:53:00;11.23;;;3.70;;
34317;SDS011;20582;52.196;20.952;2023-05-29T09:55:30;13.68;;;4.25;;
34317;SDS011;20582;52.196;20.952;2023-05-29T09:57:58;11.15;;;4.40;;
34317;SDS011;20582;52.196;20.952;2023-05-29T10:00:24;12.18;;;4.03;;
34317;SDS011;20582;52.196;20.952;2023-05-29T10:02:51;12.45;;;4.30;;
34317;SDS011;20582;52.196;20.952;2023-05-29T10:05:17;8.68;;;4.45;;
34317;SDS011;20582;52.196;20.952;2023-05-29T10:07:44;10.88;;;4.28;;
34317;SDS011;20582;52.196;20.952;2023-05-29T10:10:12;11.77;;;3.97;;
34317;SDS011;20582;52.196;20.952;2023-05-29T10:12:39;10.65;;;4.00;;
34317;SDS011;20582;52.196;20.952;2023-05-29T10:15:12;11.30;;;4.25;;
34317;SDS011;20582;52.196;20.952;2023-05-29T10:17:39;8.48;;;3.78;;
34317;SDS011;20582;52.196;20.952;2023-05-29T10:20:07;8.68;;;3.67;;
34317;SDS011;20582;52.196;20.952;2023-05-29T10:22:37;12.48;;;5.28;;
34317;SDS011;20582;52.196;20.952;2023-05-29T10:25:05;10.82;;;3.95;;
34317;SDS011;20582;52.196;20.952;2023-05-29T10:27:31;10.35;;;4.43;;
34317;SDS011;20582;52.196;20.952;2023-05-29T10:30:09;19.13;;;3.80;;
34317;SDS011;20582;52.196;20.952;2023-05-29T10:32:53;12.43;;;3.85;;
34317;SDS011;20582;52.196;20.952;2023-05-29T10:35:31;12.13;;;3.70;;
34317;SDS011;20582;52.196;20.952;2023-05-29T10:38:11;13.10;;;3.63;;
34317;SDS011;20582;52.196;20.952;2023-05-29T10:40:38;13.13;;;3.38;;
34317;SDS011;20582;52.196;20.952;2023-05-29T10:43:04;15.07;;;3.53;;
34317;SDS011;20582;52.196;20.952;2023-05-29T10:50:37;10.32;;;3.28;;
34317;SDS011;20582;52.196;20.952;2023-05-29T10:53:07;10.65;;;3.67;;
34317;SDS011;20582;52.196;20.952;2023-05-29T10:55:37;12.23;;;4.30;;
34317;SDS011;20582;52.196;20.952;2023-05-29T10:58:06;11.82;;;4.18;;
34317;SDS011;20582;52.196;20.952;2023-05-29T11:00:32;10.68;;;3.92;;
34317;SDS011;20582;52.196;20.952;2023-05-29T11:03:02;13.07;;;4.10;;
34317;SDS011;20582;52.196;20.952;2023-05-29T11:05:29;11.07;;;4.50;;
34317;SDS011;20582;52.196;20.952;2023-05-29T11:07:58;13.10;;;4.72;;
34317;SDS011;20582;52.196;20.952;2023-05-29T11:13:10;14.77;;;4.07;;
34317;SDS011;20582;52.196;20.952;2023-05-29T11:15:36;12.60;;;4.38;;
34317;SDS011;20582;52.196;20.952;2023-05-29T11:18:06;10.07;;;4.10;;
34317;SDS011;20582;52.196;20.952;2023-05-29T11:20:36;12.35;;;4.18;;
34317;SDS011;20582;52.196;20.952;2023-05-29T11:23:05;10.57;;;4.22;;
34317;SDS011;20582;52.196;20.952;2023-05-29T11:25:33;10.55;;;4.20;;
34317;SDS011;20582;52.196;20.952;2023-05-29T11:28:00;11.68;;;3.50;;
34317;SDS011;20582;52.196;20.952;2023-05-29T11:30:26;11.63;;;3.63;;
34317;SDS011;20582;52.196;20.952;2023-05-29T11:32:52;12.30;;;3.70;;
34317;SDS011;20582;52.196;20.952;2023-05-29T11:35:19;12.80;;;3.75;;
34317;SDS011;20582;52.196;20.952;2023-05-29T11:37:47;12.13;;;3.95;;
34317;SDS011;20582;52.196;20.952;2023-05-29T11:40:15;10.43;;;3.95;;
34317;SDS011;20582;52.196;20.952;2023-05-29T11:42:42;13.25;;;3.88;;
34317;SDS011;20582;52.196;20.952;2023-05-29T11:45:18;10.52;;;3.65;;
34317;SDS011;20582;52.196;20.952;2023-05-29T11:47:54;8.15;;;3.33;;
34317;SDS011;20582;52.196;20.952;2023-05-29T11:50:21;9.02;;;3.47;;
34317;SDS011;20582;52.196;20.952;2023-05-29T11:52:47;14.45;;;3.75;;
34317;SDS011;20582;52.196;20.952;2023-05-29T11:55:13;11.63;;;3.50;;
34317;SDS011;20582;52.196;20.952;2023-05-29T11:57:39;13.43;;;3.60;;
34317;SDS011;20582;52.196;20.952;2023-05-29T12:00:06;10.07;;;3.67;;
34317;SDS011;20582;52.196;20.952;2023-05-29T12:02:36;9.18;;;3.50;;
34317;SDS011;20582;52.196;20.952;2023-05-29T12:05:02;11.63;;;3.50;;
34317;SDS011;20582;52.196;20.952;2023-05-29T12:07:29;7.88;;;3.38;;
34317;SDS011;20582;52.196;20.952;2023-05-29T12:09:55;10.15;;;3.70;;
34317;SDS011;20582;52.196;20.952;2023-05-29T12:12:23;9.13;;;3.42;;
34317;SDS011;20582;52.196;20.952;2023-05-29T12:14:52;6.20;;;3.47;;
34317;SDS011;20582;52.196;20.952;2023-05-29T12:17:19;10.07;;;3.58;;
34317;SDS011;20582;52.196;20.952;2023-05-29T12:19:45;9.20;;;3.42;;
34317;SDS011;20582;52.196;20.952;2023-05-29T12:22:11;8.63;;;3.55;;
34317;SDS011;20582;52.196;20.952;2023-05-29T12:24:37;9.75;;;3.38;;
34317;SDS011;20582;52.196;20.952;2023-05-29T12:27:04;9.70;;;3.88;;
34317;SDS011;20582;52.196;20.952;2023-05-29T12:29:35;9.60;;;3.38;;
34317;SDS011;20582;52.196;20.952;2023-05-29T12:32:01;10.23;;;3.15;;
34317;SDS011;20582;52.196;20.952;2023-05-29T12:34:33;6.65;;;3.10;;
34317;SDS011;20582;52.196;20.952;2023-05-29T12:37:07;7.35;;;3.03;;
34317;SDS011;20582;52.196;20.952;2023-05-29T12:39:34;9.45;;;3.28;;
34317;SDS011;20582;52.196;20.952;2023-05-29T12:42:01;8.45;;;3.00;;
34317;SDS011;20582;52.196;20.952;2023-05-29T12:44:27;8.32;;;2.75;;
34317;SDS011;20582;52.196;20.952;2023-05-29T12:46:55;8.48;;;3.00;;
34317;SDS011;20582;52.196;20.952;2023-05-29T12:49:22;8.32;;;2.88;;
34317;SDS011;20582;52.196;20.952;2023-05-29T12:51:50;9.32;;;2.90;;
34317;SDS011;20582;52.196;20.952;2023-05-29T12:54:17;9.82;;;2.80;;
34317;SDS011;20582;52.196;20.952;2023-05-29T12:56:43;9.13;;;3.75;;
34317;SDS011;20582;52.196;20.952;2023-05-29T12:59:11;9.82;;;2.90;;
34317;SDS011;20582;52.196;20.952;2023-05-29T13:01:37;9.70;;;2.67;;
34317;SDS011;20582;52.196;20.952;2023-05-29T13:04:04;9.93;;;2.88;;
34317;SDS011;20582;52.196;20.952;2023-05-29T13:06:31;11.38;;;2.85;;
34317;SDS011;20582;52.196;20.952;2023-05-29T13:08:57;11.85;;;3.25;;
34317;SDS011;20582;52.196;20.952;2023-05-29T13:11:24;13.38;;;3.00;;
34317;SDS011;20582;52.196;20.952;2023-05-29T13:13:50;9.48;;;2.85;;
34317;SDS011;20582;52.196;20.952;2023-05-29T13:16:16;12.13;;;3.30;;
34317;SDS011;20582;52.196;20.952;2023-05-29T13:18:43;6.45;;;2.55;;
34317;SDS011;20582;52.196;20.952;2023-05-29T13:21:09;8.82;;;2.95;;
34317;SDS011;20582;52.196;20.952;2023-05-29T13:23:35;7.10;;;3.00;;
34317;SDS011;20582;52.196;20.952;2023-05-29T13:26:03;6.97;;;2.42;;
34317;SDS011;20582;52.196;20.952;2023-05-29T13:28:29;7.72;;;2.80;;
34317;SDS011;20582;52.196;20.952;2023-05-29T13:30:55;7.70;;;2.50;;
34317;SDS011;20582;52.196;20.952;2023-05-29T13:33:21;5.57;;;2.67;;
34317;SDS011;20582;52.196;20.952;2023-05-29T13:35:47;12.18;;;3.15;;
34317;SDS011;20582;52.196;20.952;2023-05-29T13:38:13;10.63;;;2.80;;
34317;SDS011;20582;52.196;20.952;2023-05-29T13:40:39;7.47;;;2.80;;
34317;SDS011;20582;52.196;20.952;2023-05-29T13:43:05;8.13;;;2.60;;
34317;SDS011;20582;52.196;20.952;2023-05-29T13:45:31;5.53;;;2.70;;
34317;SDS011;20582;52.196;20.952;2023-05-29T13:47:57;8.05;;;2.67;;
34317;SDS011;20582;52.196;20.952;2023-05-29T13:50:23;5.53;;;2.55;;
34317;SDS011;20582;52.196;20.952;2023-05-29T13:52:49;8.15;;;2.63;;
34317;SDS011;20582;52.196;20.952;2023-05-29T13:55:15;8.50;;;2.50;;
34317;SDS011;20582;52.196;20.952;2023-05-29T13:57:41;9.43;;;3.03;;
34317;SDS011;20582;52.196;20.952;2023-05-29T14:00:08;6.60;;;2.45;;
34317;SDS011;20582;52.196;20.952;2023-05-29T14:02:34;5.90;;;2.70;;
34317;SDS011;20582;52.196;20.952;2023-05-29T14:05:00;9.48;;;2.95;;
34317;SDS011;20582;52.196;20.952;2023-05-29T14:07:26;8.15;;;2.88;;
34317;SDS011;20582;52.196;20.952;2023-05-29T14:09:52;6.78;;;2.78;;
34317;SDS011;20582;52.196;20.952;2023-05-29T14:12:18;9.35;;;2.78;;
34317;SDS011;20582;52.196;20.952;2023-05-29T14:14:44;9.70;;;2.80;;
34317;SDS011;20582;52.196;20.952;2023-05-29T14:17:10;7.28;;;2.80;;
34317;SDS011;20582;52.196;20.952;2023-05-29T14:19:37;5.93;;;2.70;;
34317;SDS011;20582;52.196;20.952;2023-05-29T14:22:03;5.80;;;2.50;;
34317;SDS011;20582;52.196;20.952;2023-05-29T14:24:29;6.97;;;2.90;;
34317;SDS011;20582;52.196;20.952;2023-05-29T14:26:55;5.53;;;2.72;;
34317;SDS011;20582;52.196;20.952;2023-05-29T14:29:21;8.75;;;3.17;;
34317;SDS011;20582;52.196;20.952;2023-05-29T14:31:47;9.63;;;2.92;;
34317;SDS011;20582;52.196;20.952;2023-05-29T14:34:13;8.27;;;3.03;;
34317;SDS011;20582;52.196;20.952;2023-05-29T14:36:39;7.07;;;2.72;;